Abbott, New Mexico
Current Conditions -  °F | °C
As of 2:53 AM on Thursday 23 Oct 2014 (Local Time) from KRTN Reporting Station
Clear Clear  
Wind Chill: 40°   Ceiling: Unl
Heat Index: 43°   Visibility: 10mi
Dew Point: 38°   Wind: 5mph
Humidity: 82%   Direction: 60°ENE
Pressure: 30.2"   Gusts: NA
Location:  36.3883°N, 104.381°W
Report Text: KRTN 230853Z AUTO 06004KT 10SM CLR 06/03 A3020 RMK AO2 SLP165 T00610033 53001
Loading
Personal Weather Stations






























Interactive Weather Map
Tropical Storm Tracking
New forecast layout! Learn more

10-Day Weather Forecast

Advertisements
Track Severe Weather on mobile